createdAt,value
2023-05-09T00:08:59.063Z,10.85282
2023-05-09T00:14:00.559Z,11.92695
2023-05-09T00:19:01.925Z,10.88109
2023-05-09T00:24:03.384Z,10.40659
2023-05-09T00:29:04.811Z,10.07089
2023-05-09T00:34:06.212Z,11.03163
2023-05-09T00:39:07.745Z,11.46293
2023-05-09T00:44:09.167Z,11.61888
2023-05-09T00:49:10.538Z,11.81643
2023-05-09T00:54:11.890Z,12.21534
2023-05-09T00:59:13.292Z,12.15214
2023-05-09T01:04:14.715Z,12.12832
2023-05-09T01:09:16.124Z,12.58345
2023-05-09T01:14:17.554Z,12.2544
2023-05-09T01:19:18.958Z,12.31126
2023-05-09T01:24:20.384Z,12.22328
2023-05-09T01:29:21.754Z,12.41861
2023-05-09T01:34:23.125Z,12.09783
2023-05-09T01:39:24.547Z,12.0883
2023-05-09T01:44:25.964Z,11.96125
2023-05-09T01:49:27.365Z,11.77768
2023-05-09T01:54:28.760Z,12.20835
2023-05-09T01:59:30.284Z,12.48308
2023-05-09T02:04:31.649Z,12.58503
2023-05-09T02:09:33.026Z,12.18263
2023-05-09T02:14:34.444Z,11.86724
2023-05-09T02:19:35.935Z,11.73067
2023-05-09T02:24:37.332Z,12.00159
2023-05-09T02:29:38.719Z,12.33444
2023-05-09T02:34:40.160Z,12.02573
2023-05-09T02:39:41.534Z,12.57233
2023-05-09T02:44:42.968Z,12.3211
2023-05-09T02:49:44.481Z,11.57219
2023-05-09T02:54:45.893Z,11.20568
2023-05-09T02:59:47.291Z,11.39719
2023-05-09T03:04:48.668Z,11.23458
2023-05-09T03:09:50.075Z,11.18789
2023-05-09T03:14:51.472Z,11.61792
2023-05-09T03:19:52.853Z,11.4677
2023-05-09T03:24:54.261Z,10.99415
2023-05-09T03:29:55.674Z,11.41339
2023-05-09T03:34:57.096Z,11.34383
2023-05-09T03:39:58.509Z,11.00146
2023-05-09T03:44:59.923Z,11.35114
2023-05-09T03:50:01.270Z,11.03226
2023-05-09T03:55:02.668Z,9.90542
2023-05-09T04:00:04.063Z,10.31671
2023-05-09T04:05:05.449Z,10.44121
2023-05-09T04:10:06.866Z,10.87092
2023-05-09T04:15:08.276Z,10.33958
2023-05-09T04:20:09.683Z,10.0007
2023-05-09T04:25:11.139Z,9.1181
2023-05-09T04:30:12.611Z,10.02738
2023-05-09T04:35:14.402Z,10.08074
2023-05-09T04:40:16.408Z,9.84381
2023-05-09T04:45:17.956Z,9.18035
2023-05-09T04:50:19.543Z,9.27849
2023-05-09T04:55:20.920Z,9.56146
2023-05-09T05:00:22.375Z,8.82051
2023-05-09T05:05:25.248Z,8.32031
2023-05-09T05:10:27.057Z,8.97836
2023-05-09T05:15:28.435Z,8.79796
2023-05-09T05:20:29.807Z,8.77954
2023-05-09T05:25:31.252Z,9.05013
2023-05-09T05:30:34.383Z,8.75223
2023-05-09T05:35:36.096Z,8.58613
2023-05-09T05:40:37.530Z,8.53214
2023-05-09T05:45:38.997Z,8.63853
2023-05-09T05:50:40.417Z,8.63123
2023-05-09T05:55:41.873Z,8.10688
2023-05-09T06:00:43.340Z,8.27108
2023-05-09T06:05:44.758Z,8.10593
2023-05-09T06:10:46.204Z,7.10902
2023-05-09T06:15:47.654Z,7.8147
2023-05-09T06:20:49.040Z,7.97095
2023-05-09T06:25:50.505Z,7.44979
2023-05-09T06:30:51.898Z,7.79564
2023-05-09T06:35:53.404Z,6.85971
2023-05-09T06:40:54.868Z,7.39453
2023-05-09T06:45:56.349Z,7.32593
2023-05-09T06:50:57.763Z,7.24177
2023-05-09T06:55:59.215Z,7.32339
2023-05-09T07:01:00.623Z,7.26813
2023-05-09T07:06:02.054Z,7.40152
2023-05-09T07:11:03.438Z,7.41231
2023-05-09T07:16:04.842Z,7.1322
2023-05-09T07:21:06.282Z,7.28115
2023-05-09T07:26:07.670Z,7.55904
2023-05-09T07:31:09.071Z,7.36055
2023-05-09T07:36:10.457Z,6.83145
2023-05-09T07:41:11.866Z,7.20588
2023-05-09T07:46:13.319Z,7.14872
2023-05-09T07:51:14.820Z,7.00263
2023-05-09T07:56:16.252Z,6.76253
2023-05-09T08:01:17.601Z,6.9588
2023-05-09T08:06:18.992Z,6.89782
2023-05-09T08:11:20.392Z,6.90957
2023-05-09T08:16:21.884Z,7.00834
2023-05-09T08:21:23.483Z,6.31473
2023-05-09T08:26:24.940Z,6.77555
2023-05-09T08:31:26.422Z,6.84129
2023-05-09T08:36:27.936Z,6.37889
2023-05-09T08:41:29.338Z,6.43319
2023-05-09T08:46:30.886Z,6.23629
2023-05-09T08:51:32.345Z,6.17277
2023-05-09T08:56:33.750Z,6.17531
2023-05-09T09:01:35.198Z,6.35443
2023-05-09T09:06:36.673Z,6.34205
2023-05-09T09:11:38.076Z,6.01271
2023-05-09T09:16:39.479Z,6.1191
2023-05-09T09:21:40.917Z,6.00795
2023-05-09T09:26:42.424Z,6.33887
2023-05-09T09:31:43.910Z,6.24995
2023-05-09T09:36:45.323Z,5.93776
2023-05-09T09:41:46.692Z,5.69227
2023-05-09T09:46:48.109Z,5.81581
2023-05-09T09:51:49.497Z,5.16286
2023-05-09T09:56:50.886Z,5.5681
2023-05-09T10:01:52.315Z,5.64146
2023-05-09T10:06:53.745Z,5.45599
2023-05-09T10:11:55.109Z,5.39946
2023-05-09T10:16:56.766Z,5.42614
2023-05-09T10:21:58.392Z,5.17652
2023-05-09T10:26:59.829Z,5.03646
2023-05-09T10:32:01.361Z,5.14
2023-05-09T10:37:02.850Z,4.5909
2023-05-09T10:42:04.289Z,5.41534
2023-05-09T10:47:05.816Z,5.13491
2023-05-09T10:52:07.270Z,5.0733
2023-05-09T10:57:08.696Z,4.7173
2023-05-09T11:02:10.121Z,4.98057
2023-05-09T11:07:11.610Z,5.11935
2023-05-09T11:12:13.023Z,5.01011
2023-05-09T11:17:14.482Z,5.05361
2023-05-09T11:22:15.937Z,4.79066
2023-05-09T11:27:17.349Z,5.03615
2023-05-09T11:32:18.770Z,5.09141
2023-05-09T11:37:20.187Z,5.19367
2023-05-09T11:42:21.586Z,4.92722
2023-05-09T11:47:23.133Z,5.00375
2023-05-09T11:52:24.628Z,4.78907
2023-05-09T11:57:25.992Z,4.68173
2023-05-09T12:02:27.466Z,4.7119
2023-05-09T12:07:29.022Z,4.99137
2023-05-09T12:12:30.369Z,4.91578
2023-05-09T12:17:31.739Z,4.93071
2023-05-09T12:22:33.108Z,4.83544
2023-05-09T12:27:34.519Z,4.93611
2023-05-09T12:32:35.917Z,4.6903
2023-05-09T12:37:37.292Z,4.73032
2023-05-09T12:42:38.708Z,4.43021
2023-05-09T12:47:40.284Z,4.4969
2023-05-09T12:52:58.545Z,4.19425
2023-05-09T12:58:03.936Z,4.41877
2023-05-09T13:03:05.462Z,5.12031
2023-05-09T13:08:06.954Z,5.33658
2023-05-09T13:13:08.445Z,5.47822
2023-05-09T13:18:09.954Z,5.3893
2023-05-09T13:23:11.353Z,4.4102
2023-05-09T13:28:12.734Z,4.75953
2023-05-09T13:33:25.192Z,5.53348
2023-05-09T13:38:27.713Z,5.50521
2023-05-09T13:43:29.110Z,5.60843
2023-05-09T13:48:30.542Z,5.69957
2023-05-09T13:53:31.949Z,5.84344
2023-05-09T13:58:33.369Z,5.78691
2023-05-09T14:03:34.764Z,5.81803
2023-05-09T14:08:36.155Z,5.3804
2023-05-09T14:13:37.582Z,5.94697
2023-05-09T14:18:38.985Z,4.99518
2023-05-09T14:23:40.373Z,6.55388
2023-05-09T14:28:41.786Z,6.42779
2023-05-09T14:33:43.327Z,6.65169
2023-05-09T14:38:44.724Z,5.99366
2023-05-09T14:43:46.125Z,6.06607
2023-05-09T14:48:47.740Z,6.3087
2023-05-09T14:53:49.161Z,7.05249
2023-05-09T14:58:50.535Z,7.64924
2023-05-09T15:03:51.962Z,7.43518
2023-05-09T15:08:53.618Z,8.85799
2023-05-09T15:13:55.008Z,8.3581
2023-05-09T15:18:56.475Z,7.58445
2023-05-09T15:23:57.878Z,7.41835
2023-05-09T15:28:59.297Z,8.16024
2023-05-09T15:34:00.762Z,7.72641
2023-05-09T15:39:02.190Z,7.75944
2023-05-09T15:44:03.599Z,9.90161
2023-05-09T15:49:05.007Z,10.55523
2023-05-09T15:54:06.538Z,10.33894
2023-05-09T15:59:07.964Z,10.63558
2023-05-09T16:04:09.328Z,11.36797
2023-05-09T16:09:10.769Z,11.56393
2023-05-09T16:14:12.301Z,11.65826
2023-05-09T16:19:13.730Z,11.83739
2023-05-09T16:24:15.137Z,13.10496
2023-05-09T16:29:16.578Z,13.72239
2023-05-09T16:34:18.000Z,13.38954
2023-05-09T16:39:19.483Z,15.47086
2023-05-09T16:44:20.891Z,15.90219
2023-05-09T16:49:22.301Z,16.15882
2023-05-09T16:54:23.723Z,17.1371
2023-05-09T16:59:25.122Z,15.86058
2023-05-09T17:04:26.580Z,15.09575
2023-05-09T17:09:28.003Z,14.63712
2023-05-09T17:14:29.399Z,15.01444
2023-05-09T17:19:30.812Z,16.9443
2023-05-09T17:24:32.331Z,15.1164
2023-05-09T17:29:34.431Z,13.37239
2023-05-09T17:34:35.827Z,13.4953
2023-05-09T17:39:37.193Z,14.2293
2023-05-09T17:44:38.601Z,14.67873
2023-05-09T17:49:40.001Z,14.30331
2023-05-09T17:54:41.564Z,14.18325
2023-05-09T17:59:43.046Z,14.66634
2023-05-09T18:04:44.502Z,15.19422
2023-05-09T18:09:45.966Z,16.42721
2023-05-09T18:14:47.389Z,16.93954
2023-05-09T18:19:48.818Z,16.31573
2023-05-09T18:24:50.320Z,16.37099
2023-05-09T18:29:51.684Z,16.78962
2023-05-09T18:34:53.063Z,18.41205
2023-05-09T18:39:54.519Z,18.10141
2023-05-09T18:44:55.873Z,16.94049
2023-05-09T18:49:57.326Z,16.68353
2023-05-09T18:54:58.703Z,18.13666
2023-05-09T19:00:00.181Z,18.02327
2023-05-09T19:05:01.564Z,19.37605
2023-05-09T19:10:03.038Z,19.23566
2023-05-09T19:15:04.515Z,19.64572
2023-05-09T19:20:05.973Z,18.17954
2023-05-09T19:25:07.317Z,19.1534
2023-05-09T19:30:08.866Z,18.96313
2023-05-09T19:35:10.405Z,18.17986
2023-05-09T19:40:11.848Z,20.75268
2023-05-09T19:45:13.240Z,21.17006
2023-05-09T19:50:15.072Z,20.08342
2023-05-09T19:55:16.883Z,19.98273
2023-05-09T20:00:18.604Z,20.86354
2023-05-09T20:05:20.166Z,19.74705
2023-05-09T20:10:21.600Z,19.76738
2023-05-09T20:15:23.056Z,20.34928
2023-05-09T20:20:25.241Z,19.44975
2023-05-09T20:25:26.645Z,18.82465
2023-05-09T20:30:27.988Z,18.37965
2023-05-09T20:35:29.359Z,19.35255
2023-05-09T20:40:30.676Z,18.70141
2023-05-09T20:45:32.195Z,18.35265
2023-05-09T20:50:33.605Z,18.97965
2023-05-09T20:55:34.886Z,18.82242
2023-05-09T21:00:36.414Z,19.9011
2023-05-09T21:05:38.088Z,21.65318
2023-05-09T21:10:39.465Z,21.72021
2023-05-09T21:15:40.762Z,22.06612
2023-05-09T21:20:42.124Z,21.92604
2023-05-09T21:25:43.452Z,22.80241
2023-05-09T21:30:44.873Z,22.31292
2023-05-09T21:35:46.206Z,21.14528
2023-05-09T21:40:47.614Z,20.78794
2023-05-09T21:45:48.965Z,19.8795
2023-05-09T21:50:50.307Z,19.56155
2023-05-09T21:55:51.653Z,19.60221
2023-05-09T22:00:53.044Z,19.55139
2023-05-09T22:05:54.415Z,18.80305
2023-05-09T22:10:55.723Z,18.74048
2023-05-09T22:15:57.127Z,19.19786
2023-05-09T22:20:58.680Z,18.17446
2023-05-09T22:25:59.998Z,18.09537
2023-05-09T22:31:01.390Z,18.36059
2023-05-09T22:36:02.751Z,18.5175
2023-05-09T22:41:04.144Z,18.19384
2023-05-09T22:46:05.588Z,17.50332
2023-05-09T22:51:07.000Z,18.1427
2023-05-09T22:56:08.370Z,18.58007
2023-05-09T23:01:09.751Z,18.96599
2023-05-09T23:06:11.211Z,20.44584
2023-05-09T23:11:12.792Z,20.05515
2023-05-09T23:16:14.277Z,21.36064
2023-05-09T23:21:15.708Z,20.09549
2023-05-09T23:26:17.131Z,19.87442
2023-05-09T23:31:18.617Z,21.75642
2023-05-09T23:36:20.033Z,20.4522
2023-05-09T23:41:21.535Z,19.93318
2023-05-09T23:46:22.950Z,21.52581
2023-05-09T23:51:24.367Z,20.90197
2023-05-09T23:56:25.812Z,20.52938
